Anthony, Florida
Current Conditions -  °F | °C
As of 9:50 AM on Sunday 23 Nov 2014 (Local Time) from KOCF Reporting Station
Haze Haze  
Wind Chill: 75°   Ceiling: 2000
Heat Index: 75°   Visibility: 6mi
Dew Point: 70°   Wind: 10mph
Humidity: 83%   Direction: 180°S
Pressure: 30.01"   Gusts: 18mph
Location:  29.29°N, 82.11°W
Report Text: KOCF 231450Z 18009G16KT 6SM BR BKN020 24/21 A3001
Loading
Personal Weather Stations






























Interactive Weather Map New forecast layout! Learn more

10-Day Weather Forecast

Advertisements
Track Severe Weather on mobile